Aérodrome :
LOGIN :

S'inscrire | Disclaimer

   EN    FR    IT 

 










Légende :    VFR   VFR Marginal   IFR   IFR Intensif   IFR Très Intensif
Visi : 
Plafond : 
>= 8 km
>= 3000ft
5 à 8 km
1000 à 3000 ft
1500m à 5 km
500 à 1000 ft
800 à 1500m
200 à 500 ft
< 800m
< 200 ft
Symboles :   Orages  Brouillard  Fortes neiges  Fortes précipitations  Vent > 20 kt
SIGMETs :   Divers  Orages  Givrage  Turbulence  Onde Orograph.  Cendres Volcan.







- Altitude de l'aérodrome : 308 ft
- Code IATA : POZ


EPPO - Poznan-Lawica

DERNIER METAR :
  • 162330Z 16002KT 2000 MIFG BR NSC 10/09 Q1023

METARs EXPIRÉS :
  • 162300Z 14001KT 0900 R28/P2000 FG NSC 10/10 Q1023
  • 162230Z 12001KT 0700 R28/P2000 FG NSC 11/11 Q1023
  • 162200Z 17002KT 3500 MIFG BR NSC 10/10 Q1023
  • 162130Z 17002KT 6000 NSC 12/11 Q1023
  • 162100Z 24001KT 8000 NSC 12/11 Q1023

TAF TAF EPPO
Valide du 17 à 00h jusqu'au 18 à 00h UTC


162330Z 1700/1724 15004KT 3000 BR NSC
TEMPO 1700/1707 0700 FG
PROB30
TEMPO 1700/1706 0100 FG
BECMG 1707/1709 23010KT CAVOK
Pas de NOTAMs connus pour ce terrain.



MET'MAP, la Météo Aéronautique d'un coup d'oeil ! - Copyright ORBIFLY Décembre 2007 - Disclaimer

ORBIFLY MET'MAP TEAM :

Programmation & Développement : Alexandra Zaïnal
Conception & Développement : Baudouin d'Aumeries
Co-Programmation & Développement : Marc-Olivier Méhu
Soutien technique & logistique : Manuel Goepfert

Contact : metmap@orbifly.com




SOURCES & CREDITS :

   NOAA